createdAt,value
2022-08-11T00:02:36.918Z,3.30
2022-08-11T00:05:09.083Z,3.20
2022-08-11T00:07:44.749Z,3.00
2022-08-11T00:10:16.337Z,3.03
2022-08-11T00:12:51.346Z,3.90
2022-08-11T00:15:19.417Z,3.57
2022-08-11T00:17:48.559Z,3.60
2022-08-11T00:20:17.497Z,3.20
2022-08-11T00:22:48.111Z,3.50
2022-08-11T00:25:19.365Z,3.00
2022-08-11T00:27:49.692Z,3.63
2022-08-11T00:30:18.097Z,3.30
2022-08-11T00:32:54.762Z,2.97
2022-08-11T00:35:50.733Z,3.03
2022-08-11T00:38:18.183Z,2.90
2022-08-11T00:40:54.862Z,3.43
2022-08-11T00:43:42.863Z,3.20
2022-08-11T00:46:17.126Z,3.47
2022-08-11T00:49:00.731Z,3.47
2022-08-11T00:52:05.013Z,3.50
2022-08-11T00:55:01.664Z,3.10
2022-08-11T00:57:55.990Z,3.50
2022-08-11T01:00:33.221Z,3.43
2022-08-11T01:03:22.535Z,3.40
2022-08-11T01:06:03.328Z,3.50
2022-08-11T01:09:22.981Z,3.00
2022-08-11T01:12:25.273Z,3.30
2022-08-11T01:15:55.830Z,3.40
2022-08-11T01:19:07.004Z,3.13
2022-08-11T01:22:31.802Z,3.20
2022-08-11T01:25:56.890Z,3.53
2022-08-11T01:29:13.909Z,3.50
2022-08-11T01:32:14.365Z,3.23
2022-08-11T01:35:19.246Z,3.30
2022-08-11T01:38:20.653Z,3.97
2022-08-11T01:41:24.056Z,3.20
2022-08-11T01:44:45.090Z,2.80
2022-08-11T01:47:52.942Z,3.63
2022-08-11T01:50:38.507Z,3.60
2022-08-11T01:53:19.285Z,3.53
2022-08-11T01:55:59.712Z,3.40
2022-08-11T01:58:44.022Z,2.90
2022-08-11T02:01:31.672Z,3.33
2022-08-11T02:04:11.592Z,3.47
2022-08-11T02:06:55.485Z,3.70
2022-08-11T02:09:42.084Z,3.40
2022-08-11T02:12:33.867Z,3.90
2022-08-11T02:15:14.632Z,3.50
2022-08-11T02:17:54.754Z,3.60
2022-08-11T02:20:44.495Z,3.40
2022-08-11T02:24:07.236Z,3.30
2022-08-11T02:26:39.489Z,3.30
2022-08-11T02:29:17.426Z,3.30
2022-08-11T02:32:30.016Z,3.13
2022-08-11T02:35:11.040Z,3.53
2022-08-11T02:37:50.135Z,3.20
2022-08-11T02:40:28.302Z,3.20
2022-08-11T02:43:34.690Z,3.67
2022-08-11T02:46:18.418Z,3.10
2022-08-11T02:49:17.987Z,2.83
2022-08-11T02:52:03.415Z,3.30
2022-08-11T02:54:39.105Z,3.10
2022-08-11T02:57:19.563Z,3.63
2022-08-11T02:59:53.154Z,3.30
2022-08-11T03:02:45.866Z,3.53
2022-08-11T03:05:23.500Z,3.13
2022-08-11T03:08:09.259Z,3.50
2022-08-11T03:11:12.662Z,3.60
2022-08-11T03:14:05.006Z,3.83
2022-08-11T03:16:49.295Z,2.93
2022-08-11T03:19:26.271Z,3.50
2022-08-11T03:22:06.775Z,3.30
2022-08-11T03:24:44.925Z,3.10
2022-08-11T03:27:24.948Z,3.80
2022-08-11T03:30:05.763Z,3.10
2022-08-11T03:32:42.542Z,3.37
2022-08-11T03:35:11.643Z,3.23
2022-08-11T03:37:56.541Z,3.40
2022-08-11T03:40:57.420Z,3.30
2022-08-11T03:43:58.002Z,3.30
2022-08-11T03:46:45.408Z,3.10
2022-08-11T03:49:29.217Z,3.50
2022-08-11T03:52:09.411Z,3.17
2022-08-11T03:54:48.925Z,3.77
2022-08-11T03:58:00.909Z,3.00
2022-08-11T04:00:58.167Z,3.37
2022-08-11T04:04:07.632Z,3.40
2022-08-11T04:07:04.267Z,3.20
2022-08-11T04:10:07.772Z,3.13
2022-08-11T04:12:51.503Z,3.60
2022-08-11T04:16:11.928Z,3.63
2022-08-11T04:19:24.722Z,3.30
2022-08-11T04:22:25.906Z,3.10
2022-08-11T04:25:15.522Z,4.07
2022-08-11T04:28:29.236Z,3.60
2022-08-11T04:31:11.719Z,4.60
2022-08-11T04:33:59.721Z,3.40
2022-08-11T04:37:15.864Z,3.60
2022-08-11T04:40:11.087Z,3.47
2022-08-11T04:43:29.817Z,3.20
2022-08-11T04:46:27.452Z,3.80
2022-08-11T04:49:48.410Z,3.40
2022-08-11T04:52:54.658Z,3.17
2022-08-11T04:56:00.639Z,3.07
2022-08-11T04:59:08.165Z,2.97
2022-08-11T05:01:50.302Z,3.40
2022-08-11T05:05:01.507Z,3.50
2022-08-11T05:08:10.720Z,3.77
2022-08-11T05:10:57.974Z,3.20
2022-08-11T05:13:48.028Z,3.30
2022-08-11T05:16:37.545Z,3.40
2022-08-11T05:19:23.837Z,3.37
2022-08-11T05:22:13.015Z,3.87
2022-08-11T05:25:04.317Z,3.33
2022-08-11T05:27:57.106Z,3.50
2022-08-11T05:30:46.743Z,3.20
2022-08-11T05:33:40.444Z,3.73
2022-08-11T05:36:16.585Z,3.10
2022-08-11T05:39:13.683Z,3.00
2022-08-11T05:42:00.454Z,3.17
2022-08-11T05:44:48.799Z,3.20
2022-08-11T05:47:42.338Z,3.40
2022-08-11T05:50:31.119Z,3.10
2022-08-11T05:53:20.125Z,3.13
2022-08-11T05:56:05.912Z,2.97
2022-08-11T05:58:41.191Z,3.00
2022-08-11T06:01:13.028Z,3.50
2022-08-11T06:03:59.782Z,2.87
2022-08-11T06:06:29.210Z,3.23
2022-08-11T06:08:58.861Z,3.50
2022-08-11T06:11:43.117Z,3.50
2022-08-11T06:14:12.405Z,3.10
2022-08-11T06:16:42.959Z,2.80
2022-08-11T06:19:11.362Z,3.40
2022-08-11T06:21:44.743Z,3.37
2022-08-11T06:24:14.325Z,4.60
2022-08-11T06:27:09.118Z,3.23
2022-08-11T06:29:47.834Z,3.20
2022-08-11T06:32:19.304Z,3.07
2022-08-11T06:35:19.309Z,3.13
2022-08-11T06:38:01.622Z,3.07
2022-08-11T06:40:39.485Z,2.67
2022-08-11T06:43:17.077Z,3.00
2022-08-11T06:45:54.210Z,3.30
2022-08-11T06:48:25.243Z,3.43
2022-08-11T06:51:14.650Z,2.93
2022-08-11T06:54:03.649Z,3.33
2022-08-11T06:57:18.625Z,3.10
2022-08-11T07:00:01.978Z,3.77
2022-08-11T07:02:34.752Z,2.90
2022-08-11T07:05:09.488Z,3.23
2022-08-11T07:08:34.002Z,3.27
2022-08-11T07:11:43.061Z,3.50
2022-08-11T07:14:32.771Z,4.87
2022-08-11T07:17:03.999Z,3.03
2022-08-11T07:19:50.325Z,3.10
2022-08-11T07:22:41.502Z,3.07
2022-08-11T07:25:31.959Z,3.40
2022-08-11T07:28:22.314Z,3.10
2022-08-11T07:31:03.168Z,3.50
2022-08-11T07:34:05.565Z,3.10
2022-08-11T07:36:32.675Z,2.60
2022-08-11T07:39:03.597Z,3.07
2022-08-11T07:41:36.064Z,3.27
2022-08-11T07:44:09.890Z,5.33
2022-08-11T07:46:59.918Z,3.00
2022-08-11T07:49:48.526Z,2.97
2022-08-11T07:52:30.487Z,3.17
2022-08-11T07:55:02.375Z,3.20
2022-08-11T07:58:15.784Z,3.63
2022-08-11T08:00:59.234Z,3.07
2022-08-11T08:03:54.086Z,3.10
2022-08-11T08:06:42.311Z,3.07
2022-08-11T08:09:29.591Z,3.30
2022-08-11T08:12:19.179Z,3.10
2022-08-11T08:15:04.877Z,2.50
2022-08-11T08:18:20.512Z,2.80
2022-08-11T08:20:41.436Z,2.93
2022-08-11T08:23:10.239Z,3.10
2022-08-11T08:25:41.492Z,2.90
2022-08-11T08:28:13.972Z,2.87
2022-08-11T08:30:49.810Z,2.73
2022-08-11T08:33:22.296Z,3.37
2022-08-11T08:36:11.181Z,4.60
2022-08-11T08:38:41.476Z,3.67
2022-08-11T08:41:14.008Z,3.10
2022-08-11T08:43:50.209Z,2.50
2022-08-11T08:46:23.279Z,3.83
2022-08-11T08:48:53.483Z,2.63
2022-08-11T08:52:01.750Z,2.87
2022-08-11T08:54:34.158Z,2.70
2022-08-11T08:57:05.343Z,2.73
2022-08-11T08:59:49.221Z,2.70
2022-08-11T09:02:34.101Z,2.70
2022-08-11T09:05:06.075Z,3.10
2022-08-11T09:07:39.231Z,3.17
2022-08-11T09:10:10.881Z,2.90
2022-08-11T09:12:41.480Z,3.00
2022-08-11T09:15:15.125Z,2.72
2022-08-11T09:17:49.228Z,2.80
2022-08-11T09:20:20.708Z,4.20
2022-08-11T09:24:06.600Z,2.72
2022-08-11T09:26:30.463Z,2.63
2022-08-11T09:29:02.977Z,2.38
2022-08-11T09:31:38.918Z,2.30
2022-08-11T09:34:09.086Z,2.45
2022-08-11T09:36:56.561Z,2.60
2022-08-11T09:39:42.614Z,2.70
2022-08-11T09:42:16.673Z,2.40
2022-08-11T09:44:50.915Z,2.70
2022-08-11T09:47:24.379Z,2.30
2022-08-11T09:50:00.123Z,2.22
2022-08-11T09:52:30.892Z,2.58
2022-08-11T09:54:59.847Z,2.17
2022-08-11T09:57:46.007Z,1.98
2022-08-11T10:00:15.940Z,2.50
2022-08-11T10:02:49.463Z,2.10
2022-08-11T10:05:38.297Z,2.08
2022-08-11T10:08:08.272Z,2.17
2022-08-11T10:10:38.885Z,2.40
2022-08-11T10:14:31.947Z,1.88
2022-08-11T10:16:14.605Z,1.80
2022-08-11T10:18:53.178Z,2.47
2022-08-11T10:21:31.261Z,3.90
2022-08-11T10:24:19.383Z,2.15
2022-08-11T10:26:55.452Z,2.38
2022-08-11T10:29:44.552Z,2.20
2022-08-11T10:32:59.031Z,2.15
2022-08-11T10:35:30.462Z,2.30
2022-08-11T10:38:08.395Z,2.42
2022-08-11T10:40:40.028Z,2.00
2022-08-11T10:43:13.580Z,3.38
2022-08-11T10:46:03.146Z,3.22
2022-08-11T10:48:37.865Z,3.67
2022-08-11T10:51:14.397Z,2.38
2022-08-11T10:54:03.812Z,2.13
2022-08-11T10:56:53.482Z,2.22
2022-08-11T10:59:23.231Z,2.17
2022-08-11T11:01:53.647Z,2.10
2022-08-11T11:04:29.149Z,2.30
2022-08-11T11:07:13.775Z,2.08
2022-08-11T11:09:45.424Z,1.95
2022-08-11T11:12:36.275Z,4.53
2022-08-11T11:15:24.552Z,2.33
2022-08-11T11:18:01.293Z,2.10
2022-08-11T11:20:37.408Z,2.00
2022-08-11T11:23:16.677Z,1.92
2022-08-11T11:26:07.405Z,4.68
2022-08-11T11:29:25.162Z,4.20
2022-08-11T11:32:07.539Z,2.50
2022-08-11T11:34:53.744Z,2.47
2022-08-11T11:37:24.704Z,1.95
2022-08-11T11:39:55.413Z,2.55
2022-08-11T11:42:24.106Z,2.00
2022-08-11T11:44:55.817Z,2.40
2022-08-11T11:47:25.371Z,2.00
2022-08-11T11:49:54.315Z,3.22
2022-08-11T11:52:23.620Z,2.50
2022-08-11T11:54:56.994Z,2.05
2022-08-11T11:57:59.351Z,2.13
2022-08-11T12:00:49.208Z,2.30
2022-08-11T12:03:18.291Z,2.60
2022-08-11T12:05:47.059Z,2.22
2022-08-11T12:08:16.003Z,2.20
2022-08-11T12:10:50.458Z,2.20
2022-08-11T12:13:36.725Z,2.30
2022-08-11T12:16:33.498Z,2.15
2022-08-11T12:18:56.520Z,2.10
2022-08-11T12:21:25.117Z,2.10
2022-08-11T12:24:10.978Z,2.42
2022-08-11T12:27:15.966Z,2.30
2022-08-11T12:29:44.488Z,2.22
2022-08-11T12:32:12.971Z,2.80
2022-08-11T12:34:41.240Z,2.20
2022-08-11T12:37:13.742Z,2.55
2022-08-11T12:40:16.699Z,2.33
2022-08-11T12:43:21.762Z,2.40
2022-08-11T12:45:58.337Z,2.63
2022-08-11T12:48:59.431Z,2.20
2022-08-11T12:52:11.693Z,2.47
2022-08-11T12:54:49.607Z,2.22
2022-08-11T12:57:39.555Z,2.20
2022-08-11T13:00:28.633Z,2.70
2022-08-11T13:03:16.053Z,2.28
2022-08-11T13:05:47.220Z,2.55
2022-08-11T13:08:16.882Z,2.78
2022-08-11T13:11:04.344Z,2.40
2022-08-11T13:13:54.496Z,2.30
2022-08-11T13:16:24.093Z,2.30
2022-08-11T13:18:53.741Z,2.28
2022-08-11T13:21:23.306Z,2.10
2022-08-11T13:23:59.665Z,2.47
2022-08-11T13:26:43.178Z,2.30
2022-08-11T13:29:19.334Z,2.30
2022-08-11T13:31:49.652Z,1.98
2022-08-11T13:34:18.656Z,2.35
2022-08-11T13:36:52.031Z,2.35
2022-08-11T13:39:21.259Z,2.30
2022-08-11T13:41:53.368Z,2.67
2022-08-11T13:44:25.661Z,2.20
2022-08-11T13:46:58.637Z,2.40
2022-08-11T13:49:28.678Z,3.55
2022-08-11T13:51:57.734Z,2.60
2022-08-11T13:54:28.833Z,2.28
2022-08-11T13:57:01.971Z,2.42
2022-08-11T13:59:31.493Z,2.60
2022-08-11T14:02:21.550Z,1.92
2022-08-11T14:04:56.987Z,2.42
2022-08-11T14:07:28.658Z,2.15
2022-08-11T14:10:00.351Z,2.30
2022-08-11T14:12:48.842Z,2.70
2022-08-11T14:15:20.825Z,1.90
2022-08-11T14:17:55.917Z,2.00
2022-08-11T14:20:45.274Z,2.10
2022-08-11T14:23:15.332Z,2.00
2022-08-11T14:26:04.749Z,1.80
2022-08-11T14:28:40.279Z,1.80
2022-08-11T14:31:10.801Z,1.85
2022-08-11T14:33:59.799Z,2.03
2022-08-11T14:36:33.828Z,1.92
2022-08-11T14:39:05.700Z,1.92
2022-08-11T14:42:10.008Z,1.90
2022-08-11T14:44:58.808Z,1.80
2022-08-11T14:47:28.803Z,1.92
2022-08-11T14:50:11.219Z,1.80
2022-08-11T14:52:45.149Z,1.92
2022-08-11T14:55:32.625Z,1.70
2022-08-11T14:58:01.943Z,1.80
2022-08-11T15:00:31.126Z,2.05
2022-08-11T15:03:12.864Z,2.00
2022-08-11T15:05:56.494Z,1.70
2022-08-11T15:08:54.931Z,2.13
2022-08-11T15:11:42.289Z,1.90
2022-08-11T15:14:12.158Z,2.22
2022-08-11T15:17:01.409Z,2.00
2022-08-11T15:19:41.082Z,1.77
2022-08-11T15:22:28.853Z,1.80
2022-08-11T15:24:59.279Z,1.80
2022-08-11T15:27:48.844Z,2.00
2022-08-11T15:30:34.580Z,1.65
2022-08-11T15:33:23.181Z,2.00
2022-08-11T15:36:10.031Z,1.85
2022-08-11T15:38:42.692Z,1.90
2022-08-11T15:41:32.537Z,1.80
2022-08-11T15:44:26.840Z,1.80
2022-08-11T15:47:09.617Z,2.22
2022-08-11T15:50:11.096Z,1.80
2022-08-11T15:52:32.911Z,2.00
2022-08-11T15:55:09.027Z,1.80
2022-08-11T15:57:55.949Z,1.95
2022-08-11T16:00:41.931Z,2.20
2022-08-11T16:04:05.589Z,2.28
2022-08-11T16:06:18.250Z,2.20
2022-08-11T16:08:47.303Z,2.25
2022-08-11T16:11:18.570Z,2.60
2022-08-11T16:14:03.936Z,2.13
2022-08-11T16:16:34.322Z,2.30
2022-08-11T16:19:05.054Z,2.50
2022-08-11T16:21:36.304Z,2.40
2022-08-11T16:24:08.508Z,2.30
2022-08-11T16:27:10.439Z,2.45
2022-08-11T16:29:32.388Z,2.30
2022-08-11T16:32:22.268Z,2.22
2022-08-11T16:35:15.876Z,2.40
2022-08-11T16:38:03.228Z,2.33
2022-08-11T16:40:32.369Z,2.40
2022-08-11T16:43:22.197Z,2.25
2022-08-11T16:46:14.029Z,2.22
2022-08-11T16:48:44.122Z,2.20
2022-08-11T16:51:13.906Z,2.33
2022-08-11T16:53:59.570Z,2.42
2022-08-11T16:56:37.139Z,3.47
2022-08-11T16:59:15.554Z,2.60
2022-08-11T17:01:48.756Z,2.60
2022-08-11T17:04:55.000Z,2.38
2022-08-11T17:07:43.397Z,3.30
2022-08-11T17:10:51.662Z,2.40
2022-08-11T17:13:29.115Z,2.30
2022-08-11T17:16:09.113Z,2.70
2022-08-11T17:18:44.033Z,2.25
2022-08-11T17:21:21.587Z,2.78
2022-08-11T17:23:55.006Z,2.53
2022-08-11T17:26:27.728Z,2.45
2022-08-11T17:28:59.645Z,2.58
2022-08-11T17:31:48.304Z,2.95
2022-08-11T17:34:34.190Z,2.80
2022-08-11T17:37:04.145Z,2.80
2022-08-11T17:39:33.691Z,2.92
2022-08-11T17:42:19.996Z,2.65
2022-08-11T17:45:06.722Z,2.60
2022-08-11T17:47:57.394Z,2.60
2022-08-11T17:50:26.378Z,2.67
2022-08-11T17:53:12.301Z,2.60
2022-08-11T17:55:58.558Z,2.75
2022-08-11T17:58:45.615Z,2.40
2022-08-11T18:01:15.714Z,4.15
2022-08-11T18:03:57.577Z,3.20
2022-08-11T18:06:32.597Z,2.60
2022-08-11T18:09:23.732Z,3.67
2022-08-11T18:12:13.102Z,2.70
2022-08-11T18:15:03.719Z,2.53
2022-08-11T18:17:49.656Z,4.25
2022-08-11T18:20:37.637Z,2.63
2022-08-11T18:23:46.258Z,2.78
2022-08-11T18:26:37.897Z,3.00
2022-08-11T18:29:26.029Z,2.97
2022-08-11T18:32:20.926Z,2.80
2022-08-11T18:35:10.555Z,2.75
2022-08-11T18:38:04.049Z,2.92
2022-08-11T18:40:50.757Z,2.80
2022-08-11T18:43:39.500Z,3.10
2022-08-11T18:46:28.451Z,2.90
2022-08-11T18:49:20.154Z,2.92
2022-08-11T18:52:11.222Z,2.85
2022-08-11T18:55:01.842Z,2.95
2022-08-11T18:57:50.020Z,2.72
2022-08-11T19:00:41.859Z,2.70
2022-08-11T19:03:29.431Z,2.90
2022-08-11T19:06:38.069Z,2.90
2022-08-11T19:09:27.262Z,3.03
2022-08-11T19:12:17.320Z,2.85
2022-08-11T19:15:03.860Z,2.90
2022-08-11T19:17:50.983Z,2.90
2022-08-11T19:20:40.866Z,2.90
2022-08-11T19:23:28.701Z,3.67
2022-08-11T19:26:15.649Z,2.80
2022-08-11T19:29:05.202Z,2.63
2022-08-11T19:31:51.605Z,2.83
2022-08-11T19:34:40.192Z,3.17
2022-08-11T19:37:27.583Z,2.80
2022-08-11T19:40:16.849Z,2.60
2022-08-11T19:43:04.221Z,2.50
2022-08-11T19:46:05.996Z,2.60
2022-08-11T19:48:52.752Z,2.60
2022-08-11T19:51:39.535Z,2.37
2022-08-11T19:54:25.981Z,2.50
2022-08-11T19:57:16.075Z,2.30
2022-08-11T20:00:02.411Z,2.50
2022-08-11T20:02:48.999Z,2.50
2022-08-11T20:05:34.851Z,2.70
2022-08-11T20:08:20.827Z,2.50
2022-08-11T20:11:09.066Z,2.47
2022-08-11T20:13:59.094Z,2.30
2022-08-11T20:16:45.737Z,2.60
2022-08-11T20:19:55.616Z,2.43
2022-08-11T20:22:41.754Z,2.60
2022-08-11T20:25:29.315Z,2.37
2022-08-11T20:28:15.178Z,2.60
2022-08-11T20:31:03.843Z,2.50
2022-08-11T20:33:50.569Z,2.30
2022-08-11T20:36:37.731Z,2.40
2022-08-11T20:39:24.586Z,2.20
2022-08-11T20:42:12.280Z,2.40
2022-08-11T20:44:59.017Z,2.70
2022-08-11T20:47:56.476Z,2.23
2022-08-11T20:50:46.346Z,2.00
2022-08-11T20:53:35.818Z,2.30
2022-08-11T20:56:28.633Z,2.43
2022-08-11T20:59:18.358Z,2.60
2022-08-11T21:02:09.589Z,2.20
2022-08-11T21:04:57.316Z,2.60
2022-08-11T21:07:50.321Z,2.23
2022-08-11T21:10:46.929Z,2.50
2022-08-11T21:13:34.352Z,2.13
2022-08-11T21:16:25.968Z,2.30
2022-08-11T21:19:15.824Z,2.50
2022-08-11T21:22:03.524Z,2.10
2022-08-11T21:24:51.802Z,2.30
2022-08-11T21:27:42.010Z,2.37
2022-08-11T21:30:28.319Z,2.40
2022-08-11T21:33:13.980Z,2.73
2022-08-11T21:36:00.946Z,2.30
2022-08-11T21:38:47.475Z,2.20
2022-08-11T21:41:34.400Z,2.33
2022-08-11T21:44:22.401Z,2.30
2022-08-11T21:47:09.698Z,2.40
2022-08-11T21:49:57.619Z,2.57
2022-08-11T21:52:43.239Z,2.50
2022-08-11T21:55:29.556Z,2.37
2022-08-11T21:58:16.323Z,2.40
2022-08-11T22:01:03.920Z,2.37
2022-08-11T22:03:50.195Z,2.30
2022-08-11T22:06:37.023Z,2.53
2022-08-11T22:09:22.874Z,2.47
2022-08-11T22:12:33.528Z,2.50
2022-08-11T22:15:14.368Z,2.43
2022-08-11T22:18:00.899Z,2.17
2022-08-11T22:20:46.754Z,2.43
2022-08-11T22:23:35.877Z,2.80
2022-08-11T22:26:24.396Z,2.70
2022-08-11T22:29:10.800Z,2.57
2022-08-11T22:31:57.719Z,2.60
2022-08-11T22:34:53.318Z,2.47
2022-08-11T22:37:40.496Z,2.30
2022-08-11T22:40:28.321Z,2.33
2022-08-11T22:43:14.022Z,2.50
2022-08-11T22:45:59.763Z,2.43
2022-08-11T22:48:48.641Z,2.50
2022-08-11T22:51:38.103Z,2.30
2022-08-11T22:54:24.783Z,2.63
2022-08-11T22:57:10.566Z,2.50
2022-08-11T22:59:57.213Z,2.47
2022-08-11T23:02:46.036Z,2.60
2022-08-11T23:05:32.944Z,2.40
2022-08-11T23:08:21.099Z,2.80
2022-08-11T23:11:08.295Z,2.90
2022-08-11T23:13:54.163Z,2.50
2022-08-11T23:16:40.940Z,2.50
2022-08-11T23:20:04.550Z,2.87
2022-08-11T23:22:37.164Z,2.70
2022-08-11T23:25:37.415Z,2.60
2022-08-11T23:28:24.511Z,3.40
2022-08-11T23:31:12.732Z,3.27
2022-08-11T23:34:01.016Z,2.77
2022-08-11T23:36:48.007Z,3.50
2022-08-11T23:39:34.025Z,2.67
2022-08-11T23:42:21.105Z,2.60
2022-08-11T23:45:09.525Z,3.30
2022-08-11T23:48:00.258Z,2.80
2022-08-11T23:50:47.531Z,2.83
2022-08-11T23:53:33.437Z,2.70
2022-08-11T23:56:21.754Z,3.00
2022-08-11T23:59:09.936Z,2.80
